Shenandoah National Park, VA

2:09 AM EDT on August 29, 2015 (GMT -0400)
Redwood Lakes | | Change Station
CLOSE
Current Station
Personal Weather Station
Location: Culpeper, VA
Elevation: 416 ft
Nearby Weather Stations

Elev 416 ft 38.47 °N, 78.02 °W | Updated 14 seconds ago

Overcast
Overcast
67.3 °F
Feels Like 67.3 °F
N
0.0
Wind Variable Wind from South
Gusts 0.0 mph

Today
High -- | Low -- °F
--% Chance of Precip.
Yesterday
High -- | Low -- °F
Precip. -- in
6:38 AM 7:46 PM
Full, 100% visible
Pressure 30.21 in
Visibility 7.0 miles
Clouds Mostly Cloudy 7000 ft
Mostly Cloudy 7500 ft
Dew Point 65 °F
Humidity 91%
Rainfall 0.00 in
Snow Depth Not available.
UV 0.0 out of 12
Pollen 9.00 out of 12
Air Quality Not available.
Flu Activity Not available.
METAR KCJR 290550Z AUTO 00000KT 7SM BKN070 BKN075 17/16 A3021 RMK AO2 T01670163 10205 20167
Pressure 30.21 in
Visibility 7.0 miles
Clouds Mostly Cloudy 7000 ft
Mostly Cloudy 7500 ft
Dew Point 65 °F
Humidity 91%
Rainfall 0.00 in
Snow Depth Not available.
UV 0.0 out of 12
Pollen 9.00 out of 12
Air Quality Not available.
Flu Activity Not available.
METAR KCJR 290550Z AUTO 00000KT 7SM BKN070 BKN075 17/16 A3021 RMK AO2 T01670163 10205 20167

10-Day Weather Forecast

×

Almanac

Astronomy

Aug. 29, 2015 Rise Set
Actual Time
Civil Twilight
Nautical Twilight
Astronomical Twilight
Moon
Length of Visible Light
Length of Day
Tomorrow will be .
, % of the Moon is Illuminated

Today's Extremes

State Highs State Lows

Community

WunderPhotos

Upload Photos

1,850,622 photos uploaded!

WunderBlogs® & News

Nearby

Air Quality

  Air Quality AQ Index Pollutant
Not available.

Snow Depth

Station Depth Elevation

Earthquake Activity

City Distance Mag. Time & Date
Minimum magnitude displayed is 2.5.

Coastal Water Temperatures

Place Temperature

Stations

Nearby Weather Stations

Station Location Temp. Windchill Dew Point Humidity Wind Precip. Elev Updated Type